Paul Andrew — WCP2545 — position and weather

sailwx.info

Track history (hours):
 
Tides and Currents Weather Stations Pressure Air Temp Water Temp Dewpoint Dewpoint Depression Visibility Wind Speed Wind Dir Waves Ship Positions

Paul Andrew

Owner: Donjon Marine Co., Inc., HILLSIDE, NJ. More information available from US FCC via Universal Licensing System and Coast Guard Vessel Documentation Center.

Last reported at 2017-Oct-18 05:29 UTC. Time now 2017-Oct-18 05:44 UTC.
Position N 40°41' W 074°05'.

Length 20 m; draft 2.5 m.

Type: Tug. MMSI: 366979030.

Date/timePositionNaut miles runAvg speedWind from/ knotsBaromVisibWave heightAir tempDewpointWater temp
2017-Oct-18 05:29N 40°41' W 074°05'0 0.0
2017-Oct-18 04:59N 40°41' W 074°05'0 0.0
2017-Oct-18 04:29N 40°41' W 074°05'0 0.0
2017-Oct-18 03:59N 40°41' W 074°05'0 0.0
2017-Oct-18 03:29N 40°41' W 074°05'0 0.0
2017-Oct-18 02:59N 40°41' W 074°05'0 0.0
2017-Oct-18 02:30N 40°41' W 074°05'2 4.3
2017-Oct-18 02:00N 40°41' W 074°02'4 7.0
2017-Oct-18 01:30N 40°43' W 073°58'2 3.6
2017-Oct-18 01:00N 40°44' W 073°56'1 1.1
2017-Oct-18 00:18N 40°43' W 073°55'1 3.3
2017-Oct-18 00:00N 40°44' W 073°56'1 1.6
2017-Oct-17 23:28N 40°44' W 073°57'1 1.3
2017-Oct-17 23:00N 40°44' W 073°58'3 5.8
2017-Oct-17 22:31N 40°42' W 074°00'3 6.0
2017-Oct-17 22:01N 40°41' W 074°04'1 1.2
2017-Oct-17 21:29N 40°41' W 074°05'0 0.0
2017-Oct-17 20:59N 40°41' W 074°05'0 0.0
2017-Oct-17 20:30N 40°41' W 074°05'0 0.8
2017-Oct-17 20:01N 40°41' W 074°04'0 0.1
2017-Oct-17 19:31N 40°41' W 074°04'0 0.8
2017-Oct-17 19:00N 40°41' W 074°05'0 0.0
2017-Oct-17 18:30N 40°41' W 074°05'0 0.0
2017-Oct-17 18:00N 40°41' W 074°05'0 0.2
2017-Oct-17 17:28N 40°41' W 074°05'0 0.4
2017-Oct-17 17:00N 40°41' W 074°04'0 0.4
2017-Oct-17 16:24N 40°41' W 074°05'0 0.0
2017-Oct-17 16:00N 40°41' W 074°05'0 0.0
2017-Oct-17 15:30N 40°41' W 074°05'0 0.0
2017-Oct-17 15:00N 40°41' W 074°05'0 0.0
2017-Oct-17 14:30N 40°41' W 074°05'0 0.5
2017-Oct-17 13:59N 40°41' W 074°05'0 0.4
2017-Oct-17 13:30N 40°41' W 074°04'0 0.3
2017-Oct-17 13:00N 40°41' W 074°04'0 0.4
2017-Oct-17 12:30N 40°41' W 074°04'0 0.7
2017-Oct-17 11:58N 40°41' W 074°05'0 0.0
2017-Oct-17 11:29N 40°41' W 074°05'0 0.4
2017-Oct-17 11:00N 40°41' W 074°04'0 0.1
2017-Oct-17 10:30N 40°41' W 074°04'0 0.4
2017-Oct-17 10:00N 40°41' W 074°05'0 0.0
2017-Oct-17 09:30N 40°41' W 074°05'0 0.0
2017-Oct-17 09:00N 40°41' W 074°05'0 0.0
2017-Oct-17 08:30N 40°41' W 074°05'0 0.0
2017-Oct-17 08:00N 40°41' W 074°05'0 0.0
2017-Oct-17 07:30N 40°41' W 074°05'0 0.0
2017-Oct-17 07:00N 40°41' W 074°05'0 0.0
2017-Oct-17 06:30N 40°41' W 074°05'0 0.0
2017-Oct-17 06:00N 40°41' W 074°05'0 0.0
2017-Oct-17 05:30N 40°41' W 074°05'0 0.0
2017-Oct-17 05:00N 40°41' W 074°05'0 0.0
2017-Oct-17 04:30N 40°41' W 074°05'0 0.0
2017-Oct-17 04:00N 40°41' W 074°05'0 0.0
2017-Oct-17 03:12N 40°41' W 074°05'0 0.0
2017-Oct-17 03:00N 40°41' W 074°05'0 0.0
2017-Oct-17 02:30N 40°41' W 074°05'0 0.0
2017-Oct-17 02:00N 40°41' W 074°05'0 0.0
2017-Oct-17 01:30N 40°41' W 074°05'0 0.0
2017-Oct-17 01:00N 40°41' W 074°05'0 0.0
2017-Oct-17 00:30N 40°41' W 074°05'0 0.0
2017-Oct-17 00:00N 40°41' W 074°05'0 0.5
2017-Oct-16 23:31N 40°41' W 074°04'3 5.6
2017-Oct-16 23:00N 40°40' W 074°01'1 2.1
2017-Oct-16 22:30N 40°40' W 073°60'1 2.6
2017-Oct-16 22:00N 40°40' W 074°01'3 5.2
2017-Oct-16 21:30N 40°41' W 074°04'0 0.3
2017-Oct-16 20:58N 40°41' W 074°05'0 0.0
2017-Oct-16 20:28N 40°41' W 074°05'0 0.0
2017-Oct-16 19:58N 40°41' W 074°05'0 0.0
2017-Oct-16 19:28N 40°41' W 074°05'0 0.0
2017-Oct-16 18:58N 40°41' W 074°05'0 0.0
2017-Oct-16 18:28N 40°41' W 074°05'1 2.3
2017-Oct-16 18:00N 40°41' W 074°03'3 6.1
2017-Oct-16 17:30N 40°42' W 074°00'3 6.2
2017-Oct-16 17:00N 40°45' W 073°58'4 7.5
2017-Oct-16 16:27N 40°48' W 073°54'3 5.9
2017-Oct-16 15:58N 40°48' W 073°50'2 0.5
2017-Oct-16 11:22N 40°48' W 073°47'2 6.0
2017-Oct-16 11:00N 40°48' W 073°50'4 6.1
2017-Oct-16 10:20N 40°47' W 073°55'3 9.2
2017-Oct-16 10:00N 40°45' W 073°58'4 7.7
2017-Oct-16 09:31N 40°41' W 074°00'3 5.7
2017-Oct-16 09:00N 40°41' W 074°04'0 0.5
2017-Oct-16 08:30N 40°41' W 074°04'0 0.0
2017-Oct-16 08:00N 40°41' W 074°04'0 0.0
2017-Oct-16 07:30N 40°41' W 074°04'0 0.0
2017-Oct-16 07:00N 40°41' W 074°04'0 0.0
2017-Oct-16 06:30N 40°41' W 074°04'0 0.0
2017-Oct-16 06:00N 40°41' W 074°04'0 0.0
2017-Oct-16 05:30N 40°41' W 074°04'0 0.0
2017-Oct-16 05:00N 40°41' W 074°04'0 0.0
2017-Oct-16 04:30N 40°41' W 074°04'0 0.0
2017-Oct-16 04:00N 40°41' W 074°04'0 0.0
2017-Oct-16 03:29N 40°41' W 074°04'0 0.0
2017-Oct-16 03:00N 40°41' W 074°04'2 4.7
2017-Oct-16 02:30N 40°39' W 074°06'3 5.1
2017-Oct-16 02:00N 40°41' W 074°08'2 2.8
2017-Oct-16 01:26N 40°42' W 074°09'0 0.0
2017-Oct-16 00:50N 40°42' W 074°09'0 0.0
2017-Oct-16 00:26N 40°42' W 074°09'0 0.0
2017-Oct-15 23:59N 40°42' W 074°09'0 0.0
2017-Oct-15 23:23N 40°42' W 074°09'0 0.0
2017-Oct-15 22:59N 40°42' W 074°09'0 0.0
2017-Oct-15 22:29N 40°42' W 074°09'0 0.0
2017-Oct-15 21:50N 40°42' W 074°09'0 0.0
2017-Oct-15 21:23N 40°42' W 074°09'0 0.0
2017-Oct-15 20:59N 40°42' W 074°09'0 0.0
2017-Oct-15 20:29N 40°42' W 074°09'0 0.0
2017-Oct-15 19:59N 40°42' W 074°09'0 0.0
2017-Oct-15 19:29N 40°42' W 074°09'0 0.0
2017-Oct-15 18:59N 40°42' W 074°09'0 0.0
2017-Oct-15 18:26N 40°42' W 074°09'0 0.0
2017-Oct-15 17:59N 40°42' W 074°09'0 0.0
2017-Oct-15 17:23N 40°42' W 074°09'1 2.7
2017-Oct-15 17:00N 40°41' W 074°08'1 1.1
2017-Oct-15 16:30N 40°41' W 074°09'2 3.8
2017-Oct-15 16:00N 40°39' W 074°09'2 3.5
2017-Oct-15 15:30N 40°39' W 074°07'2 3.6
2017-Oct-15 15:00N 40°39' W 074°04'2 1.8
2017-Oct-15 14:00N 40°41' W 074°05'2 4.0
2017-Oct-15 13:30N 40°41' W 074°02'4 7.9
2017-Oct-15 13:00N 40°43' W 073°58'5 8.5
2017-Oct-15 12:24N 40°48' W 073°54'2 1.2
2017-Oct-15 10:47N 40°48' W 073°52'2 5.3
2017-Oct-15 10:26N 40°48' W 073°54'3 7.4
2017-Oct-15 10:00N 40°46' W 073°57'4 7.6
2017-Oct-15 09:30N 40°42' W 073°60'3 6.9
2017-Oct-15 09:00N 40°41' W 074°04'1 1.9
2017-Oct-15 08:30N 40°41' W 074°05'0 0.0
2017-Oct-15 08:00N 40°41' W 074°05'0 0.0
2017-Oct-15 07:30N 40°41' W 074°05'0 0.0
2017-Oct-15 07:00N 40°41' W 074°05'0 0.0
2017-Oct-15 06:30N 40°41' W 074°05'0 0.0
2017-Oct-15 06:00N 40°41' W 074°05'0 0.0
2017-Oct-15 05:30N 40°41' W 074°05'0 0.0
2017-Oct-15 05:00N 40°41' W 074°05'0 0.0
2017-Oct-15 04:30N 40°41' W 074°05'0 0.0
2017-Oct-15 04:00N 40°41' W 074°05'0 0.0
2017-Oct-15 03:30N 40°41' W 074°05'0 0.0
2017-Oct-15 02:57N 40°41' W 074°05'0 0.0
2017-Oct-15 02:30N 40°41' W 074°05'2 3.9
2017-Oct-15 02:00N 40°39' W 074°05'3 5.8
2017-Oct-15 01:30N 40°40' W 074°08'2 4.0
2017-Oct-15 00:58N 40°42' W 074°09'0 0.0
2017-Oct-15 00:28N 40°42' W 074°09'0 0.0
2017-Oct-14 23:58N 40°42' W 074°09'0 0.0
2017-Oct-14 23:28N 40°42' W 074°09'0 0.0
2017-Oct-14 22:58N 40°42' W 074°09'0 0.0
2017-Oct-14 22:31N 40°42' W 074°09'1 2.9
2017-Oct-14 22:00N 40°41' W 074°08'2 4.6
2017-Oct-14 21:30N 40°39' W 074°08'3 6.1
2017-Oct-14 21:00N 40°40' W 074°04'1 1.6
2017-Oct-14 20:27N 40°40' W 074°05'1 2.1
2017-Oct-14 20:00N 40°40' W 074°04'1 1.3
2017-Oct-14 19:30N 40°41' W 074°03'0 0.0
2017-Oct-14 19:00N 40°41' W 074°03'1 2.9
2017-Oct-14 18:30N 40°40' W 074°05'0 0.3
2017-Oct-14 17:59N 40°40' W 074°05'0 0.0
2017-Oct-14 17:29N 40°40' W 074°05'0 0.0
2017-Oct-14 16:59N 40°40' W 074°05'0 0.0
2017-Oct-14 16:26N 40°40' W 074°05'0 0.0
2017-Oct-14 15:59N 40°40' W 074°05'0 0.0
2017-Oct-14 15:29N 40°40' W 074°05'0 0.3
2017-Oct-14 15:00N 40°40' W 074°05'3 5.2
2017-Oct-14 14:30N 40°39' W 074°08'3 4.7
2017-Oct-14 13:57N 40°41' W 074°08'0 0.2
2017-Oct-14 13:30N 40°41' W 074°08'0 0.0
2017-Oct-14 12:54N 40°41' W 074°08'0 0.0
2017-Oct-14 12:30N 40°41' W 074°08'1 0.4
2017-Oct-14 09:24N 40°42' W 074°09'0 0.0
2017-Oct-14 08:57N 40°42' W 074°09'0 0.0
2017-Oct-14 08:30N 40°42' W 074°09'0 0.0
2017-Oct-14 07:48N 40°42' W 074°09'0 0.0
2017-Oct-14 02:21N 40°42' W 074°09'1 3.0
2017-Oct-14 02:00N 40°41' W 074°08'1 1.3
2017-Oct-14 01:30N 40°40' W 074°08'1 2.8
2017-Oct-14 01:00N 40°39' W 074°09'1 2.1
2017-Oct-14 00:25N 40°39' W 074°07'1 2.8
2017-Oct-13 23:55N 40°39' W 074°06'1 3.2
2017-Oct-13 23:30N 40°40' W 074°04'2 2.4
2017-Oct-13 22:52N 40°41' W 074°05'0 0.1
2017-Oct-13 22:28N 40°41' W 074°05'2 2.9
2017-Oct-13 21:54N 40°40' W 074°04'2 5.6
2017-Oct-13 21:30N 40°39' W 074°07'2 3.9
2017-Oct-13 20:59N 40°41' W 074°08'3 5.4
2017-Oct-13 20:30N 40°43' W 074°07'2 3.9
2017-Oct-13 20:00N 40°44' W 074°05'0 0.4
2017-Oct-13 19:29N 40°45' W 074°05'1 0.8
2017-Oct-13 18:33N 40°44' W 074°06'0 2.4
2017-Oct-13 18:27N 40°44' W 074°05'1 2.1
2017-Oct-13 18:00N 40°44' W 074°06'3 6.1
2017-Oct-13 17:30N 40°41' W 074°08'0 0.1
2017-Oct-13 16:58N 40°41' W 074°08'0 0.8
2017-Oct-13 16:25N 40°41' W 074°08'0 0.0
2017-Oct-13 15:55N 40°41' W 074°08'0 0.0
2017-Oct-13 15:25N 40°41' W 074°08'0 0.0
2017-Oct-13 14:55N 40°41' W 074°08'0 0.0
2017-Oct-13 14:25N 40°41' W 074°08'0 0.0
2017-Oct-13 13:49N 40°41' W 074°08'0 0.2
2017-Oct-13 13:28N 40°41' W 074°08'0 0.1
2017-Oct-13 12:58N 40°41' W 074°08'1 1.4
2017-Oct-13 12:29N 40°41' W 074°09'0 0.5
2017-Oct-13 12:00N 40°41' W 074°08'2 3.7
2017-Oct-13 11:30N 40°39' W 074°09'2 3.1
2017-Oct-13 11:00N 40°39' W 074°07'2 3.2
2017-Oct-13 10:30N 40°39' W 074°05'2 3.5
2017-Oct-13 10:00N 40°41' W 074°04'1 1.1
2017-Oct-13 09:28N 40°41' W 074°04'0 0.3
2017-Oct-13 08:59N 40°41' W 074°05'1 2.9
2017-Oct-13 08:30N 40°40' W 074°03'2 4.9
2017-Oct-13 08:00N 40°40' W 074°00'0 0.6
2017-Oct-13 07:30N 40°40' W 073°60'0 0.3
2017-Oct-13 07:00N 40°40' W 073°60'2 4.4
2017-Oct-13 06:31N 40°40' W 074°03'2 3.2
2017-Oct-13 06:00N 40°41' W 074°05'0 0.2
2017-Oct-13 05:29N 40°41' W 074°05'0 0.0
2017-Oct-13 04:53N 40°41' W 074°05'0 0.0
2017-Oct-13 04:26N 40°41' W 074°05'0 0.0
2017-Oct-13 03:59N 40°41' W 074°05'0 0.0
2017-Oct-13 03:29N 40°41' W 074°05'0 0.0
2017-Oct-13 03:00N 40°41' W 074°05'0 0.0
2017-Oct-13 02:29N 40°41' W 074°05'0 0.0
2017-Oct-13 01:53N 40°41' W 074°05'0 0.0
2017-Oct-13 01:26N 40°41' W 074°05'0 0.0
2017-Oct-13 00:59N 40°41' W 074°05'0 0.0
2017-Oct-13 00:23N 40°41' W 074°05'0 0.0
2017-Oct-12 23:53N 40°41' W 074°05'0 0.0
2017-Oct-12 23:29N 40°41' W 074°05'0 0.0
2017-Oct-12 22:56N 40°41' W 074°05'0 0.0
2017-Oct-12 22:26N 40°41' W 074°05'0 0.0
2017-Oct-12 21:59N 40°41' W 074°05'0 0.0
2017-Oct-12 21:29N 40°41' W 074°05'0 0.0
2017-Oct-12 20:59N 40°41' W 074°05'0 0.0
2017-Oct-12 20:29N 40°41' W 074°05'0 0.0
2017-Oct-12 19:59N 40°41' W 074°05'0 0.0
2017-Oct-12 19:29N 40°41' W 074°05'0 0.0
2017-Oct-12 18:56N 40°41' W 074°05'0 0.0
2017-Oct-12 18:26N 40°41' W 074°05'0 0.0
2017-Oct-12 17:59N 40°41' W 074°05'0 0.0
2017-Oct-12 17:29N 40°41' W 074°05'0 0.0
2017-Oct-12 16:59N 40°41' W 074°05'0 0.0
2017-Oct-12 16:29N 40°41' W 074°05'0 0.0
2017-Oct-12 15:59N 40°41' W 074°05'0 0.0
2017-Oct-12 15:26N 40°41' W 074°05'0 0.0
2017-Oct-12 14:59N 40°41' W 074°05'0 0.0
2017-Oct-12 14:29N 40°41' W 074°05'0 0.0
2017-Oct-12 13:56N 40°41' W 074°05'0 0.0
2017-Oct-12 13:29N 40°41' W 074°05'0 0.0
2017-Oct-12 12:59N 40°41' W 074°05'0 0.0
2017-Oct-12 12:26N 40°41' W 074°05'0 0.0
2017-Oct-12 11:53N 40°41' W 074°05'0 0.3
2017-Oct-12 11:30N 40°41' W 074°05'1 2.1
2017-Oct-12 11:00N 40°40' W 074°04'3 7.0
2017-Oct-12 10:30N 40°42' W 073°60'4 7.9
2017-Oct-12 10:00N 40°46' W 073°57'4 7.7
2017-Oct-12 09:28N 40°48' W 073°52'1 0.4
2017-Oct-12 07:59N 40°48' W 073°52'3 5.2
2017-Oct-12 07:23N 40°47' W 073°56'3 7.5
2017-Oct-12 07:00N 40°45' W 073°58'4 7.2
2017-Oct-12 06:30N 40°42' W 074°00'3 6.0
2017-Oct-12 06:00N 40°41' W 074°04'0 0.8
2017-Oct-12 05:28N 40°41' W 074°05'0 0.0
2017-Oct-12 04:58N 40°41' W 074°05'0 0.0
2017-Oct-12 04:28N 40°41' W 074°05'0 0.0
2017-Oct-12 03:55N 40°41' W 074°05'0 0.0
2017-Oct-12 03:28N 40°41' W 074°05'0 0.0
2017-Oct-12 02:58N 40°41' W 074°05'0 0.0
2017-Oct-12 02:28N 40°41' W 074°05'0 0.0
2017-Oct-12 01:58N 40°41' W 074°05'0 0.0
2017-Oct-12 01:28N 40°41' W 074°05'0 0.0
2017-Oct-12 00:58N 40°41' W 074°05'0 0.0
2017-Oct-12 00:28N 40°41' W 074°05'0 0.0
2017-Oct-11 23:58N 40°41' W 074°05'0 0.0
2017-Oct-11 23:22N 40°41' W 074°05'0 0.6
2017-Oct-11 22:58N 40°41' W 074°04'1 3.1
2017-Oct-11 22:30N 40°40' W 074°04'3 6.0
2017-Oct-11 22:00N 40°39' W 074°08'2 3.7
2017-Oct-11 21:30N 40°40' W 074°08'1 1.4
2017-Oct-11 20:59N 40°41' W 074°08'1 2.0
2017-Oct-11 20:27N 40°42' W 074°09'0 0.1
2017-Oct-11 20:00N 40°42' W 074°09'1 2.3
2017-Oct-11 19:28N 40°41' W 074°09'0 0.1
2017-Oct-11 18:59N 40°41' W 074°09'0 0.5
2017-Oct-11 18:30N 40°41' W 074°08'1 1.9
2017-Oct-11 17:58N 40°42' W 074°09'1 2.3
2017-Oct-11 17:29N 40°41' W 074°09'1 1.4
2017-Oct-11 16:36N 40°42' W 074°09'16 0.6
2017-Oct-10 13:15N 40°48' W 073°50'2 8.0
2017-Oct-10 13:00N 40°48' W 073°52'4 7.3
2017-Oct-10 12:26N 40°46' W 073°57'3 6.4
2017-Oct-10 12:01N 40°43' W 073°58'3 5.4
2017-Oct-10 11:31N 40°41' W 074°01'2 4.7
2017-Oct-10 11:01N 40°40' W 074°03'1 2.5
2017-Oct-10 10:30N 40°41' W 074°05'0 0.0
2017-Oct-10 10:00N 40°41' W 074°05'0 0.0
2017-Oct-10 09:30N 40°41' W 074°05'0 0.0
2017-Oct-10 09:00N 40°41' W 074°05'0 0.0
2017-Oct-10 08:30N 40°41' W 074°05'0 0.0
2017-Oct-10 08:00N 40°41' W 074°05'0 0.0
2017-Oct-10 07:30N 40°41' W 074°05'0 0.0
2017-Oct-10 07:00N 40°41' W 074°05'0 0.0
2017-Oct-10 06:30N 40°41' W 074°05'0 0.0
2017-Oct-10 06:00N 40°41' W 074°05'0 0.0
2017-Oct-10 05:30N 40°41' W 074°05'0 0.0
2017-Oct-10 05:00N 40°41' W 074°05'0 0.0
2017-Oct-10 04:30N 40°41' W 074°05'0 0.0
2017-Oct-10 04:00N 40°41' W 074°05'0 0.0
2017-Oct-10 03:27N 40°41' W 074°05'0 0.0
2017-Oct-10 03:00N 40°41' W 074°05'0 0.0
2017-Oct-10 02:30N 40°41' W 074°05'0 0.0
2017-Oct-10 02:00N 40°41' W 074°05'0 0.0
2017-Oct-10 01:30N 40°41' W 074°05'0 0.0
2017-Oct-10 01:00N 40°41' W 074°05'0 0.0
2017-Oct-10 00:24N 40°41' W 074°05'0 0.0
2017-Oct-10 00:00N 40°41' W 074°05'0 0.0
2017-Oct-09 23:30N 40°41' W 074°05'0 0.0
2017-Oct-09 22:57N 40°41' W 074°05'0 0.0
2017-Oct-09 22:30N 40°41' W 074°05'0 0.0
2017-Oct-09 21:51N 40°41' W 074°05'0 0.0
2017-Oct-09 21:30N 40°41' W 074°05'0 0.0
2017-Oct-09 21:00N 40°41' W 074°05'0 0.0
2017-Oct-09 20:30N 40°41' W 074°05'0 0.0
2017-Oct-09 20:00N 40°41' W 074°05'0 0.0
2017-Oct-09 19:30N 40°41' W 074°05'0 0.0
2017-Oct-09 19:00N 40°41' W 074°05'0 0.0
2017-Oct-09 18:30N 40°41' W 074°05'0 0.0
2017-Oct-09 18:00N 40°41' W 074°05'0 0.0
2017-Oct-09 17:30N 40°41' W 074°05'0 0.0
2017-Oct-09 17:00N 40°41' W 074°05'0 0.0
2017-Oct-09 16:30N 40°41' W 074°05'0 0.0
2017-Oct-09 16:00N 40°41' W 074°05'0 0.0
2017-Oct-09 15:30N 40°41' W 074°05'2 3.0
2017-Oct-09 15:01N 40°40' W 074°03'2 4.8
2017-Oct-09 14:31N 40°40' W 073°60'0 0.5
2017-Oct-09 14:00N 40°40' W 074°00'3 5.3
2017-Oct-09 13:31N 40°41' W 074°04'1 2.0
2017-Oct-09 13:00N 40°41' W 074°05'0 0.0
2017-Oct-09 12:30N 40°41' W 074°05'0 0.0
2017-Oct-09 12:00N 40°41' W 074°05'0 0.0
2017-Oct-09 11:30N 40°41' W 074°05'0 0.0
2017-Oct-09 11:00N 40°41' W 074°05'0 0.0
2017-Oct-09 10:30N 40°41' W 074°05'0 0.0
2017-Oct-09 10:00N 40°41' W 074°05'0 0.0
2017-Oct-09 09:30N 40°41' W 074°05'0 0.0
2017-Oct-09 09:00N 40°41' W 074°05'0 0.0
2017-Oct-09 08:30N 40°41' W 074°05'0 0.0
2017-Oct-09 08:00N 40°41' W 074°05'0 0.0
2017-Oct-09 07:30N 40°41' W 074°05'0 0.0
2017-Oct-09 07:00N 40°41' W 074°05'0 0.0
2017-Oct-09 06:30N 40°41' W 074°05'0 0.0
2017-Oct-09 06:00N 40°41' W 074°05'0 0.0
2017-Oct-09 05:27N 40°41' W 074°05'0 0.0
2017-Oct-09 05:00N 40°41' W 074°05'0 0.0
2017-Oct-09 04:30N 40°41' W 074°05'0 0.0
2017-Oct-09 04:00N 40°41' W 074°05'0 0.0
2017-Oct-09 03:27N 40°41' W 074°05'0 0.0
2017-Oct-09 03:00N 40°41' W 074°05'0 0.0
2017-Oct-09 02:27N 40°41' W 074°05'0 0.0
2017-Oct-09 02:00N 40°41' W 074°05'0 0.4
2017-Oct-09 01:30N 40°41' W 074°04'3 5.4
2017-Oct-09 01:00N 40°39' W 074°06'0 0.8
2017-Oct-09 00:29N 40°39' W 074°07'0 0.0
2017-Oct-08 23:59N 40°39' W 074°07'0 0.1
2017-Oct-08 23:29N 40°39' W 074°07'3 5.8
2017-Oct-08 23:01N 40°41' W 074°04'1 1.6
2017-Oct-08 22:29N 40°41' W 074°05'0 0.0
2017-Oct-08 21:59N 40°41' W 074°05'0 0.0
2017-Oct-08 21:29N 40°41' W 074°05'0 0.2
2017-Oct-08 21:00N 40°41' W 074°05'0 0.1
2017-Oct-08 20:30N 40°41' W 074°05'0 0.5
2017-Oct-08 19:59N 40°41' W 074°04'0 0.3
2017-Oct-08 19:27N 40°41' W 074°05'0 0.4
2017-Oct-08 18:58N 40°41' W 074°04'0 0.5
2017-Oct-08 18:30N 40°41' W 074°05'0 0.0
2017-Oct-08 18:00N 40°41' W 074°05'0 0.3
2017-Oct-08 17:30N 40°41' W 074°04'0 0.3
2017-Oct-08 17:00N 40°41' W 074°05'0 0.1
2017-Oct-08 16:27N 40°41' W 074°05'0 0.0
2017-Oct-08 16:00N 40°41' W 074°05'0 0.0
2017-Oct-08 15:30N 40°41' W 074°05'0 0.0
2017-Oct-08 15:00N 40°41' W 074°05'0 0.0
2017-Oct-08 14:30N 40°41' W 074°05'0 0.0
2017-Oct-08 14:00N 40°41' W 074°05'0 0.0
2017-Oct-08 13:30N 40°41' W 074°05'0 0.0
2017-Oct-08 13:00N 40°41' W 074°05'0 0.0
2017-Oct-08 12:30N 40°41' W 074°05'0 0.0
2017-Oct-08 12:00N 40°41' W 074°05'0 0.0
2017-Oct-08 11:30N 40°41' W 074°05'0 0.0
2017-Oct-08 11:00N 40°41' W 074°05'0 0.0
2017-Oct-08 10:30N 40°41' W 074°05'0 0.0
2017-Oct-08 10:00N 40°41' W 074°05'0 0.0
2017-Oct-08 09:30N 40°41' W 074°05'2 4.9
2017-Oct-08 09:00N 40°39' W 074°06'2 4.6
2017-Oct-08 08:30N 40°40' W 074°08'1 2.7
2017-Oct-08 08:00N 40°41' W 074°08'0 0.7
2017-Oct-08 07:30N 40°41' W 074°08'3 5.3
2017-Oct-08 07:00N 40°39' W 074°09'2 4.9
2017-Oct-08 06:31N 40°39' W 074°06'2 3.9
2017-Oct-08 06:00N 40°38' W 074°03'  
Track history (hours):
 
Tides and Currents Weather Stations Pressure Air Temp Water Temp Dewpoint Dewpoint Depression Visibility Wind Speed Wind Dir Waves Ship Positions

Paul Andrew

Owner: Donjon Marine Co., Inc., HILLSIDE, NJ. More information available from US FCC via Universal Licensing System and Coast Guard Vessel Documentation Center.

Last reported at 2017-Oct-18 05:29 UTC. Time now 2017-Oct-18 05:44 UTC.
Position N 40°41' W 074°05'.

Length 20 m; draft 2.5 m.

Type: Tug. MMSI: 366979030.

Date/timePositionNaut miles runAvg speedWind from/ knotsBaromVisibWave heightAir tempDewpointWater temp
2017-Oct-18 05:29N 40°41' W 074°05'0 0.0
2017-Oct-18 04:59N 40°41' W 074°05'0 0.0
2017-Oct-18 04:29N 40°41' W 074°05'0 0.0
2017-Oct-18 03:59N 40°41' W 074°05'0 0.0
2017-Oct-18 03:29N 40°41' W 074°05'0 0.0
2017-Oct-18 02:59N 40°41' W 074°05'0 0.0
2017-Oct-18 02:30N 40°41' W 074°05'2 4.3
2017-Oct-18 02:00N 40°41' W 074°02'4 7.0
2017-Oct-18 01:30N 40°43' W 073°58'2 3.6
2017-Oct-18 01:00N 40°44' W 073°56'1 1.1
2017-Oct-18 00:18N 40°43' W 073°55'1 3.3
2017-Oct-18 00:00N 40°44' W 073°56'1 1.6
2017-Oct-17 23:28N 40°44' W 073°57'1 1.3
2017-Oct-17 23:00N 40°44' W 073°58'3 5.8
2017-Oct-17 22:31N 40°42' W 074°00'3 6.0
2017-Oct-17 22:01N 40°41' W 074°04'1 1.2
2017-Oct-17 21:29N 40°41' W 074°05'0 0.0
2017-Oct-17 20:59N 40°41' W 074°05'0 0.0
2017-Oct-17 20:30N 40°41' W 074°05'0 0.8
2017-Oct-17 20:01N 40°41' W 074°04'0 0.1
2017-Oct-17 19:31N 40°41' W 074°04'0 0.8
2017-Oct-17 19:00N 40°41' W 074°05'0 0.0
2017-Oct-17 18:30N 40°41' W 074°05'0 0.0
2017-Oct-17 18:00N 40°41' W 074°05'0 0.2
2017-Oct-17 17:28N 40°41' W 074°05'0 0.4
2017-Oct-17 17:00N 40°41' W 074°04'0 0.4
2017-Oct-17 16:24N 40°41' W 074°05'0 0.0
2017-Oct-17 16:00N 40°41' W 074°05'0 0.0
2017-Oct-17 15:30N 40°41' W 074°05'0 0.0
2017-Oct-17 15:00N 40°41' W 074°05'0 0.0
2017-Oct-17 14:30N 40°41' W 074°05'0 0.5
2017-Oct-17 13:59N 40°41' W 074°05'0 0.4
2017-Oct-17 13:30N 40°41' W 074°04'0 0.3
2017-Oct-17 13:00N 40°41' W 074°04'0 0.4
2017-Oct-17 12:30N 40°41' W 074°04'0 0.7
2017-Oct-17 11:58N 40°41' W 074°05'0 0.0
2017-Oct-17 11:29N 40°41' W 074°05'0 0.4
2017-Oct-17 11:00N 40°41' W 074°04'0 0.1
2017-Oct-17 10:30N 40°41' W 074°04'0 0.4
2017-Oct-17 10:00N 40°41' W 074°05'0 0.0
2017-Oct-17 09:30N 40°41' W 074°05'0 0.0
2017-Oct-17 09:00N 40°41' W 074°05'0 0.0
2017-Oct-17 08:30N 40°41' W 074°05'0 0.0
2017-Oct-17 08:00N 40°41' W 074°05'0 0.0
2017-Oct-17 07:30N 40°41' W 074°05'0 0.0
2017-Oct-17 07:00N 40°41' W 074°05'0 0.0
2017-Oct-17 06:30N 40°41' W 074°05'0 0.0
2017-Oct-17 06:00N 40°41' W 074°05'0 0.0
2017-Oct-17 05:30N 40°41' W 074°05'0 0.0
2017-Oct-17 05:00N 40°41' W 074°05'0 0.0
2017-Oct-17 04:30N 40°41' W 074°05'0 0.0
2017-Oct-17 04:00N 40°41' W 074°05'0 0.0
2017-Oct-17 03:12N 40°41' W 074°05'0 0.0
2017-Oct-17 03:00N 40°41' W 074°05'0 0.0
2017-Oct-17 02:30N 40°41' W 074°05'0 0.0
2017-Oct-17 02:00N 40°41' W 074°05'0 0.0
2017-Oct-17 01:30N 40°41' W 074°05'0 0.0
2017-Oct-17 01:00N 40°41' W 074°05'0 0.0
2017-Oct-17 00:30N 40°41' W 074°05'0 0.0
2017-Oct-17 00:00N 40°41' W 074°05'0 0.5
2017-Oct-16 23:31N 40°41' W 074°04'3 5.6
2017-Oct-16 23:00N 40°40' W 074°01'1 2.1
2017-Oct-16 22:30N 40°40' W 073°60'1 2.6
2017-Oct-16 22:00N 40°40' W 074°01'3 5.2
2017-Oct-16 21:30N 40°41' W 074°04'0 0.3
2017-Oct-16 20:58N 40°41' W 074°05'0 0.0
2017-Oct-16 20:28N 40°41' W 074°05'0 0.0
2017-Oct-16 19:58N 40°41' W 074°05'0 0.0
2017-Oct-16 19:28N 40°41' W 074°05'0 0.0
2017-Oct-16 18:58N 40°41' W 074°05'0 0.0
2017-Oct-16 18:28N 40°41' W 074°05'1 2.3
2017-Oct-16 18:00N 40°41' W 074°03'3 6.1
2017-Oct-16 17:30N 40°42' W 074°00'3 6.2
2017-Oct-16 17:00N 40°45' W 073°58'4 7.5
2017-Oct-16 16:27N 40°48' W 073°54'3 5.9
2017-Oct-16 15:58N 40°48' W 073°50'2 0.5
2017-Oct-16 11:22N 40°48' W 073°47'2 6.0
2017-Oct-16 11:00N 40°48' W 073°50'4 6.1
2017-Oct-16 10:20N 40°47' W 073°55'3 9.2
2017-Oct-16 10:00N 40°45' W 073°58'4 7.7
2017-Oct-16 09:31N 40°41' W 074°00'3 5.7
2017-Oct-16 09:00N 40°41' W 074°04'0 0.5
2017-Oct-16 08:30N 40°41' W 074°04'0 0.0
2017-Oct-16 08:00N 40°41' W 074°04'0 0.0
2017-Oct-16 07:30N 40°41' W 074°04'0 0.0
2017-Oct-16 07:00N 40°41' W 074°04'0 0.0
2017-Oct-16 06:30N 40°41' W 074°04'0 0.0
2017-Oct-16 06:00N 40°41' W 074°04'0 0.0
2017-Oct-16 05:30N 40°41' W 074°04'0 0.0
2017-Oct-16 05:00N 40°41' W 074°04'0 0.0
2017-Oct-16 04:30N 40°41' W 074°04'0 0.0
2017-Oct-16 04:00N 40°41' W 074°04'0 0.0
2017-Oct-16 03:29N 40°41' W 074°04'0 0.0
2017-Oct-16 03:00N 40°41' W 074°04'2 4.7
2017-Oct-16 02:30N 40°39' W 074°06'3 5.1
2017-Oct-16 02:00N 40°41' W 074°08'2 2.8
2017-Oct-16 01:26N 40°42' W 074°09'0 0.0
2017-Oct-16 00:50N 40°42' W 074°09'0 0.0
2017-Oct-16 00:26N 40°42' W 074°09'0 0.0
2017-Oct-15 23:59N 40°42' W 074°09'0 0.0
2017-Oct-15 23:23N 40°42' W 074°09'0 0.0
2017-Oct-15 22:59N 40°42' W 074°09'0 0.0
2017-Oct-15 22:29N 40°42' W 074°09'0 0.0
2017-Oct-15 21:50N 40°42' W 074°09'0 0.0
2017-Oct-15 21:23N 40°42' W 074°09'0 0.0
2017-Oct-15 20:59N 40°42' W 074°09'0 0.0
2017-Oct-15 20:29N 40°42' W 074°09'0 0.0
2017-Oct-15 19:59N 40°42' W 074°09'0 0.0
2017-Oct-15 19:29N 40°42' W 074°09'0 0.0
2017-Oct-15 18:59N 40°42' W 074°09'0 0.0
2017-Oct-15 18:26N 40°42' W 074°09'0 0.0
2017-Oct-15 17:59N 40°42' W 074°09'0 0.0
2017-Oct-15 17:23N 40°42' W 074°09'1 2.7
2017-Oct-15 17:00N 40°41' W 074°08'1 1.1
2017-Oct-15 16:30N 40°41' W 074°09'2 3.8
2017-Oct-15 16:00N 40°39' W 074°09'2 3.5
2017-Oct-15 15:30N 40°39' W 074°07'2 3.6
2017-Oct-15 15:00N 40°39' W 074°04'2 1.8
2017-Oct-15 14:00N 40°41' W 074°05'2 4.0
2017-Oct-15 13:30N 40°41' W 074°02'4 7.9
2017-Oct-15 13:00N 40°43' W 073°58'5 8.5
2017-Oct-15 12:24N 40°48' W 073°54'2 1.2
2017-Oct-15 10:47N 40°48' W 073°52'2 5.3
2017-Oct-15 10:26N 40°48' W 073°54'3 7.4
2017-Oct-15 10:00N 40°46' W 073°57'4 7.6
2017-Oct-15 09:30N 40°42' W 073°60'3 6.9
2017-Oct-15 09:00N 40°41' W 074°04'1 1.9
2017-Oct-15 08:30N 40°41' W 074°05'0 0.0
2017-Oct-15 08:00N 40°41' W 074°05'0 0.0
2017-Oct-15 07:30N 40°41' W 074°05'0 0.0
2017-Oct-15 07:00N 40°41' W 074°05'0 0.0
2017-Oct-15 06:30N 40°41' W 074°05'0 0.0
2017-Oct-15 06:00N 40°41' W 074°05'0 0.0
2017-Oct-15 05:30N 40°41' W 074°05'0 0.0
2017-Oct-15 05:00N 40°41' W 074°05'0 0.0
2017-Oct-15 04:30N 40°41' W 074°05'0 0.0
2017-Oct-15 04:00N 40°41' W 074°05'0 0.0
2017-Oct-15 03:30N 40°41' W 074°05'0 0.0
2017-Oct-15 02:57N 40°41' W 074°05'0 0.0
2017-Oct-15 02:30N 40°41' W 074°05'2 3.9
2017-Oct-15 02:00N 40°39' W 074°05'3 5.8
2017-Oct-15 01:30N 40°40' W 074°08'2 4.0
2017-Oct-15 00:58N 40°42' W 074°09'0 0.0
2017-Oct-15 00:28N 40°42' W 074°09'0 0.0
2017-Oct-14 23:58N 40°42' W 074°09'0 0.0
2017-Oct-14 23:28N 40°42' W 074°09'0 0.0
2017-Oct-14 22:58N 40°42' W 074°09'0 0.0
2017-Oct-14 22:31N 40°42' W 074°09'1 2.9
2017-Oct-14 22:00N 40°41' W 074°08'2 4.6
2017-Oct-14 21:30N 40°39' W 074°08'3 6.1
2017-Oct-14 21:00N 40°40' W 074°04'1 1.6
2017-Oct-14 20:27N 40°40' W 074°05'1 2.1
2017-Oct-14 20:00N 40°40' W 074°04'1 1.3
2017-Oct-14 19:30N 40°41' W 074°03'0 0.0
2017-Oct-14 19:00N 40°41' W 074°03'1 2.9
2017-Oct-14 18:30N 40°40' W 074°05'0 0.3
2017-Oct-14 17:59N 40°40' W 074°05'0 0.0
2017-Oct-14 17:29N 40°40' W 074°05'0 0.0
2017-Oct-14 16:59N 40°40' W 074°05'0 0.0
2017-Oct-14 16:26N 40°40' W 074°05'0 0.0
2017-Oct-14 15:59N 40°40' W 074°05'0 0.0
2017-Oct-14 15:29N 40°40' W 074°05'0 0.3
2017-Oct-14 15:00N 40°40' W 074°05'3 5.2
2017-Oct-14 14:30N 40°39' W 074°08'3 4.7
2017-Oct-14 13:57N 40°41' W 074°08'0 0.2
2017-Oct-14 13:30N 40°41' W 074°08'0 0.0
2017-Oct-14 12:54N 40°41' W 074°08'0 0.0
2017-Oct-14 12:30N 40°41' W 074°08'1 0.4
2017-Oct-14 09:24N 40°42' W 074°09'0 0.0
2017-Oct-14 08:57N 40°42' W 074°09'0 0.0
2017-Oct-14 08:30N 40°42' W 074°09'0 0.0
2017-Oct-14 07:48N 40°42' W 074°09'0 0.0
2017-Oct-14 02:21N 40°42' W 074°09'1 3.0
2017-Oct-14 02:00N 40°41' W 074°08'1 1.3
2017-Oct-14 01:30N 40°40' W 074°08'1 2.8
2017-Oct-14 01:00N 40°39' W 074°09'1 2.1
2017-Oct-14 00:25N 40°39' W 074°07'1 2.8
2017-Oct-13 23:55N 40°39' W 074°06'1 3.2
2017-Oct-13 23:30N 40°40' W 074°04'2 2.4
2017-Oct-13 22:52N 40°41' W 074°05'0 0.1
2017-Oct-13 22:28N 40°41' W 074°05'2 2.9
2017-Oct-13 21:54N 40°40' W 074°04'2 5.6
2017-Oct-13 21:30N 40°39' W 074°07'2 3.9
2017-Oct-13 20:59N 40°41' W 074°08'3 5.4
2017-Oct-13 20:30N 40°43' W 074°07'2 3.9
2017-Oct-13 20:00N 40°44' W 074°05'0 0.4
2017-Oct-13 19:29N 40°45' W 074°05'1 0.8
2017-Oct-13 18:33N 40°44' W 074°06'0 2.4
2017-Oct-13 18:27N 40°44' W 074°05'1 2.1
2017-Oct-13 18:00N 40°44' W 074°06'3 6.1
2017-Oct-13 17:30N 40°41' W 074°08'0 0.1
2017-Oct-13 16:58N 40°41' W 074°08'0 0.8
2017-Oct-13 16:25N 40°41' W 074°08'0 0.0
2017-Oct-13 15:55N 40°41' W 074°08'0 0.0
2017-Oct-13 15:25N 40°41' W 074°08'0 0.0
2017-Oct-13 14:55N 40°41' W 074°08'0 0.0
2017-Oct-13 14:25N 40°41' W 074°08'0 0.0
2017-Oct-13 13:49N 40°41' W 074°08'0 0.2
2017-Oct-13 13:28N 40°41' W 074°08'0 0.1
2017-Oct-13 12:58N 40°41' W 074°08'1 1.4
2017-Oct-13 12:29N 40°41' W 074°09'0 0.5
2017-Oct-13 12:00N 40°41' W 074°08'2 3.7
2017-Oct-13 11:30N 40°39' W 074°09'2 3.1
2017-Oct-13 11:00N 40°39' W 074°07'2 3.2
2017-Oct-13 10:30N 40°39' W 074°05'2 3.5
2017-Oct-13 10:00N 40°41' W 074°04'1 1.1
2017-Oct-13 09:28N 40°41' W 074°04'0 0.3
2017-Oct-13 08:59N 40°41' W 074°05'1 2.9
2017-Oct-13 08:30N 40°40' W 074°03'2 4.9
2017-Oct-13 08:00N 40°40' W 074°00'0 0.6
2017-Oct-13 07:30N 40°40' W 073°60'0 0.3
2017-Oct-13 07:00N 40°40' W 073°60'2 4.4
2017-Oct-13 06:31N 40°40' W 074°03'2 3.2
2017-Oct-13 06:00N 40°41' W 074°05'0 0.2
2017-Oct-13 05:29N 40°41' W 074°05'0 0.0
2017-Oct-13 04:53N 40°41' W 074°05'0 0.0
2017-Oct-13 04:26N 40°41' W 074°05'0 0.0
2017-Oct-13 03:59N 40°41' W 074°05'0 0.0
2017-Oct-13 03:29N 40°41' W 074°05'0 0.0
2017-Oct-13 03:00N 40°41' W 074°05'0 0.0
2017-Oct-13 02:29N 40°41' W 074°05'0 0.0
2017-Oct-13 01:53N 40°41' W 074°05'0 0.0
2017-Oct-13 01:26N 40°41' W 074°05'0 0.0
2017-Oct-13 00:59N 40°41' W 074°05'0 0.0
2017-Oct-13 00:23N 40°41' W 074°05'0 0.0
2017-Oct-12 23:53N 40°41' W 074°05'0 0.0
2017-Oct-12 23:29N 40°41' W 074°05'0 0.0
2017-Oct-12 22:56N 40°41' W 074°05'0 0.0
2017-Oct-12 22:26N 40°41' W 074°05'0 0.0
2017-Oct-12 21:59N 40°41' W 074°05'0 0.0
2017-Oct-12 21:29N 40°41' W 074°05'0 0.0
2017-Oct-12 20:59N 40°41' W 074°05'0 0.0
2017-Oct-12 20:29N 40°41' W 074°05'0 0.0
2017-Oct-12 19:59N 40°41' W 074°05'0 0.0
2017-Oct-12 19:29N 40°41' W 074°05'0 0.0
2017-Oct-12 18:56N 40°41' W 074°05'0 0.0
2017-Oct-12 18:26N 40°41' W 074°05'0 0.0
2017-Oct-12 17:59N 40°41' W 074°05'0 0.0
2017-Oct-12 17:29N 40°41' W 074°05'0 0.0
2017-Oct-12 16:59N 40°41' W 074°05'0 0.0
2017-Oct-12 16:29N 40°41' W 074°05'0 0.0
2017-Oct-12 15:59N 40°41' W 074°05'0 0.0
2017-Oct-12 15:26N 40°41' W 074°05'0 0.0
2017-Oct-12 14:59N 40°41' W 074°05'0 0.0
2017-Oct-12 14:29N 40°41' W 074°05'0 0.0
2017-Oct-12 13:56N 40°41' W 074°05'0 0.0
2017-Oct-12 13:29N 40°41' W 074°05'0 0.0
2017-Oct-12 12:59N 40°41' W 074°05'0 0.0
2017-Oct-12 12:26N 40°41' W 074°05'0 0.0
2017-Oct-12 11:53N 40°41' W 074°05'0 0.3
2017-Oct-12 11:30N 40°41' W 074°05'1 2.1
2017-Oct-12 11:00N 40°40' W 074°04'3 7.0
2017-Oct-12 10:30N 40°42' W 073°60'4 7.9
2017-Oct-12 10:00N 40°46' W 073°57'4 7.7
2017-Oct-12 09:28N 40°48' W 073°52'1 0.4
2017-Oct-12 07:59N 40°48' W 073°52'3 5.2
2017-Oct-12 07:23N 40°47' W 073°56'3 7.5
2017-Oct-12 07:00N 40°45' W 073°58'4 7.2
2017-Oct-12 06:30N 40°42' W 074°00'3 6.0
2017-Oct-12 06:00N 40°41' W 074°04'0 0.8
2017-Oct-12 05:28N 40°41' W 074°05'0 0.0
2017-Oct-12 04:58N 40°41' W 074°05'0 0.0
2017-Oct-12 04:28N 40°41' W 074°05'0 0.0
2017-Oct-12 03:55N 40°41' W 074°05'0 0.0
2017-Oct-12 03:28N 40°41' W 074°05'0 0.0
2017-Oct-12 02:58N 40°41' W 074°05'0 0.0
2017-Oct-12 02:28N 40°41' W 074°05'0 0.0
2017-Oct-12 01:58N 40°41' W 074°05'0 0.0
2017-Oct-12 01:28N 40°41' W 074°05'0 0.0
2017-Oct-12 00:58N 40°41' W 074°05'0 0.0
2017-Oct-12 00:28N 40°41' W 074°05'0 0.0
2017-Oct-11 23:58N 40°41' W 074°05'0 0.0
2017-Oct-11 23:22N 40°41' W 074°05'0 0.6
2017-Oct-11 22:58N 40°41' W 074°04'1 3.1
2017-Oct-11 22:30N 40°40' W 074°04'3 6.0
2017-Oct-11 22:00N 40°39' W 074°08'2 3.7
2017-Oct-11 21:30N 40°40' W 074°08'1 1.4
2017-Oct-11 20:59N 40°41' W 074°08'1 2.0
2017-Oct-11 20:27N 40°42' W 074°09'0 0.1
2017-Oct-11 20:00N 40°42' W 074°09'1 2.3
2017-Oct-11 19:28N 40°41' W 074°09'0 0.1
2017-Oct-11 18:59N 40°41' W 074°09'0 0.5
2017-Oct-11 18:30N 40°41' W 074°08'1 1.9
2017-Oct-11 17:58N 40°42' W 074°09'1 2.3
2017-Oct-11 17:29N 40°41' W 074°09'1 1.4
2017-Oct-11 16:36N 40°42' W 074°09'16 0.6
2017-Oct-10 13:15N 40°48' W 073°50'2 8.0
2017-Oct-10 13:00N 40°48' W 073°52'4 7.3
2017-Oct-10 12:26N 40°46' W 073°57'3 6.4
2017-Oct-10 12:01N 40°43' W 073°58'3 5.4
2017-Oct-10 11:31N 40°41' W 074°01'2 4.7
2017-Oct-10 11:01N 40°40' W 074°03'1 2.5
2017-Oct-10 10:30N 40°41' W 074°05'0 0.0
2017-Oct-10 10:00N 40°41' W 074°05'0 0.0
2017-Oct-10 09:30N 40°41' W 074°05'0 0.0
2017-Oct-10 09:00N 40°41' W 074°05'0 0.0
2017-Oct-10 08:30N 40°41' W 074°05'0 0.0
2017-Oct-10 08:00N 40°41' W 074°05'0 0.0
2017-Oct-10 07:30N 40°41' W 074°05'0 0.0
2017-Oct-10 07:00N 40°41' W 074°05'0 0.0
2017-Oct-10 06:30N 40°41' W 074°05'0 0.0
2017-Oct-10 06:00N 40°41' W 074°05'0 0.0
2017-Oct-10 05:30N 40°41' W 074°05'0 0.0
2017-Oct-10 05:00N 40°41' W 074°05'0 0.0
2017-Oct-10 04:30N 40°41' W 074°05'0 0.0
2017-Oct-10 04:00N 40°41' W 074°05'0 0.0
2017-Oct-10 03:27N 40°41' W 074°05'0 0.0
2017-Oct-10 03:00N 40°41' W 074°05'0 0.0
2017-Oct-10 02:30N 40°41' W 074°05'0 0.0
2017-Oct-10 02:00N 40°41' W 074°05'0 0.0
2017-Oct-10 01:30N 40°41' W 074°05'0 0.0
2017-Oct-10 01:00N 40°41' W 074°05'0 0.0
2017-Oct-10 00:24N 40°41' W 074°05'0 0.0
2017-Oct-10 00:00N 40°41' W 074°05'0 0.0
2017-Oct-09 23:30N 40°41' W 074°05'0 0.0
2017-Oct-09 22:57N 40°41' W 074°05'0 0.0
2017-Oct-09 22:30N 40°41' W 074°05'0 0.0
2017-Oct-09 21:51N 40°41' W 074°05'0 0.0
2017-Oct-09 21:30N 40°41' W 074°05'0 0.0
2017-Oct-09 21:00N 40°41' W 074°05'0 0.0
2017-Oct-09 20:30N 40°41' W 074°05'0 0.0
2017-Oct-09 20:00N 40°41' W 074°05'0 0.0
2017-Oct-09 19:30N 40°41' W 074°05'0 0.0
2017-Oct-09 19:00N 40°41' W 074°05'0 0.0
2017-Oct-09 18:30N 40°41' W 074°05'0 0.0
2017-Oct-09 18:00N 40°41' W 074°05'0 0.0
2017-Oct-09 17:30N 40°41' W 074°05'0 0.0
2017-Oct-09 17:00N 40°41' W 074°05'0 0.0
2017-Oct-09 16:30N 40°41' W 074°05'0 0.0
2017-Oct-09 16:00N 40°41' W 074°05'0 0.0
2017-Oct-09 15:30N 40°41' W 074°05'2 3.0
2017-Oct-09 15:01N 40°40' W 074°03'2 4.8
2017-Oct-09 14:31N 40°40' W 073°60'0 0.5
2017-Oct-09 14:00N 40°40' W 074°00'3 5.3
2017-Oct-09 13:31N 40°41' W 074°04'1 2.0
2017-Oct-09 13:00N 40°41' W 074°05'0 0.0
2017-Oct-09 12:30N 40°41' W 074°05'0 0.0
2017-Oct-09 12:00N 40°41' W 074°05'0 0.0
2017-Oct-09 11:30N 40°41' W 074°05'0 0.0
2017-Oct-09 11:00N 40°41' W 074°05'0 0.0
2017-Oct-09 10:30N 40°41' W 074°05'0 0.0
2017-Oct-09 10:00N 40°41' W 074°05'0 0.0
2017-Oct-09 09:30N 40°41' W 074°05'0 0.0
2017-Oct-09 09:00N 40°41' W 074°05'0 0.0
2017-Oct-09 08:30N 40°41' W 074°05'0 0.0
2017-Oct-09 08:00N 40°41' W 074°05'0 0.0
2017-Oct-09 07:30N 40°41' W 074°05'0 0.0
2017-Oct-09 07:00N 40°41' W 074°05'0 0.0
2017-Oct-09 06:30N 40°41' W 074°05'0 0.0
2017-Oct-09 06:00N 40°41' W 074°05'0 0.0
2017-Oct-09 05:27N 40°41' W 074°05'0 0.0
2017-Oct-09 05:00N 40°41' W 074°05'0 0.0
2017-Oct-09 04:30N 40°41' W 074°05'0 0.0
2017-Oct-09 04:00N 40°41' W 074°05'0 0.0
2017-Oct-09 03:27N 40°41' W 074°05'0 0.0
2017-Oct-09 03:00N 40°41' W 074°05'0 0.0
2017-Oct-09 02:27N 40°41' W 074°05'0 0.0
2017-Oct-09 02:00N 40°41' W 074°05'0 0.4
2017-Oct-09 01:30N 40°41' W 074°04'3 5.4
2017-Oct-09 01:00N 40°39' W 074°06'0 0.8
2017-Oct-09 00:29N 40°39' W 074°07'0 0.0
2017-Oct-08 23:59N 40°39' W 074°07'0 0.1
2017-Oct-08 23:29N 40°39' W 074°07'3 5.8
2017-Oct-08 23:01N 40°41' W 074°04'1 1.6
2017-Oct-08 22:29N 40°41' W 074°05'0 0.0
2017-Oct-08 21:59N 40°41' W 074°05'0 0.0
2017-Oct-08 21:29N 40°41' W 074°05'0 0.2
2017-Oct-08 21:00N 40°41' W 074°05'0 0.1
2017-Oct-08 20:30N 40°41' W 074°05'0 0.5
2017-Oct-08 19:59N 40°41' W 074°04'0 0.3
2017-Oct-08 19:27N 40°41' W 074°05'0 0.4
2017-Oct-08 18:58N 40°41' W 074°04'0 0.5
2017-Oct-08 18:30N 40°41' W 074°05'0 0.0
2017-Oct-08 18:00N 40°41' W 074°05'0 0.3
2017-Oct-08 17:30N 40°41' W 074°04'0 0.3
2017-Oct-08 17:00N 40°41' W 074°05'0 0.1
2017-Oct-08 16:27N 40°41' W 074°05'0 0.0
2017-Oct-08 16:00N 40°41' W 074°05'0 0.0
2017-Oct-08 15:30N 40°41' W 074°05'0 0.0
2017-Oct-08 15:00N 40°41' W 074°05'0 0.0
2017-Oct-08 14:30N 40°41' W 074°05'0 0.0
2017-Oct-08 14:00N 40°41' W 074°05'0 0.0
2017-Oct-08 13:30N 40°41' W 074°05'0 0.0
2017-Oct-08 13:00N 40°41' W 074°05'0 0.0
2017-Oct-08 12:30N 40°41' W 074°05'0 0.0
2017-Oct-08 12:00N 40°41' W 074°05'0 0.0
2017-Oct-08 11:30N 40°41' W 074°05'0 0.0
2017-Oct-08 11:00N 40°41' W 074°05'0 0.0
2017-Oct-08 10:30N 40°41' W 074°05'0 0.0
2017-Oct-08 10:00N 40°41' W 074°05'0 0.0
2017-Oct-08 09:30N 40°41' W 074°05'2 4.9
2017-Oct-08 09:00N 40°39' W 074°06'2 4.6
2017-Oct-08 08:30N 40°40' W 074°08'1 2.7
2017-Oct-08 08:00N 40°41' W 074°08'0 0.7
2017-Oct-08 07:30N 40°41' W 074°08'3 5.3
2017-Oct-08 07:00N 40°39' W 074°09'2 4.9
2017-Oct-08 06:31N 40°39' W 074°06'2 3.9
2017-Oct-08 06:00N 40°38' W 074°03'  

Dump ship's entire track history